首页
METAR-TAF:

METAR-TAF

机场 :

卢森堡-芬德尔国际机场

卢森堡, 卢森堡

纬度: 49-37N, 经度: 006-13E, 海拔: 376米

当前天气观测

该预报发布于21分钟前的07:50 UTC
风速7节,风向北转西北,在西转西北之间变化
温度 12°C
湿度 67%
气压 1028 hPa
能见度10公里或以上
散云层高于2100英尺

METAR: ELLX 230750Z 33007KT 300V360 9999 SCT021 12/06 Q1028 NOSIG

时间: 10:11 (08:11 UTC)

预报

该预报发布于3小时和11分钟前的05:00 UTC
预报有效从23日的 06点(UTC)到 24日的 12点(UTC)
风速6节,风向
能见度10公里或以上
散云层高于2000英尺
散云层高于5000英尺
短暂存在
从 23日的 08点(UTC)到 23日的 17点(UTC)
风速13节,风向

TAF: ELLX 230500Z 2306/2412 35006KT 9999 SCT020 SCT050 TEMPO 2308/2317 36013KT

超过4000个机场的气象观测和天气预报(METAR&TAF报告)。

可查询的气象台以黄色和红色小点在地图上表示。

将鼠标移到小点上方,可查看气象台名称。

然后点击查看天气观测和预报。

如需切换地图:点击带黑十字的绿色按钮放大地图;点击带横线的绿色按钮缩小地图;或者点击绿色箭头查看邻近地区的地图。


METAR-TAF: